Time;durP1;ratioP1;P1;durP2;ratioP2;P2;SDS_P1;SDS_P2;PMS_P1;PMS_P2;Temp;Humidity;BMP_temperature;BMP_pressure;BME280_temperature;BME280_humidity;BME280_pressure;Samples;Min_cycle;Max_cycle;Signal;HPM_P1;HPM_P2
2022/04/16 00:02:11;;;;;;;13.27;9.13;;;8.20;99.90;;;;;;4976499;28;20042;-63
2022/04/16 00:04:39;;;;;;;11.60;8.48;;;;;;;;;;4977033;28;20041;-63
2022/04/16 00:07:05;;;;;;;11.75;8.05;;;;;;;;;;4959122;28;20050;-62
2022/04/16 00:09:30;;;;;;;15.43;9.65;;;8.00;99.90;;;;;;4970369;28;20049;-63
2022/04/16 00:11:56;;;;;;;13.07;8.60;;;7.90;99.90;;;;;;4976481;28;20050;-63
2022/04/16 00:14:21;;;;;;;15.27;8.57;;;7.90;99.90;;;;;;4943113;28;20073;-62
2022/04/16 00:16:47;;;;;;;12.32;8.73;;;;;;;;;;4976649;28;20039;-62
2022/04/16 00:19:14;;;;;;;13.35;8.70;;;;;;;;;;4958696;28;20047;-62
2022/04/16 00:21:40;;;;;;;11.23;7.55;;;7.60;99.90;;;;;;4959579;28;20101;-62
2022/04/16 00:24:07;;;;;;;11.23;7.35;;;7.50;99.90;;;;;;4958454;28;20485;-62
2022/04/16 00:26:33;;;;;;;10.95;7.80;;;;;;;;;;4959044;28;20047;-62
2022/04/16 00:28:59;;;;;;;16.92;9.70;;;;;;;;;;4958929;28;20031;-62
2022/04/16 00:31:29;;;;;;;12.18;8.25;;;;;;;;;;4975805;28;20069;-62
2022/04/16 00:33:55;;;;;;;14.55;9.55;;;7.50;99.90;;;;;;4976032;28;20043;-62
2022/04/16 00:36:21;;;;;;;15.60;9.80;;;7.30;99.90;;;;;;4958721;28;20040;-62
2022/04/16 00:38:47;;;;;;;14.30;8.88;;;7.20;99.90;;;;;;4976142;28;20042;-62
2022/04/16 00:41:13;;;;;;;14.88;9.05;;;7.10;99.90;;;;;;4958587;28;20042;-62
2022/04/16 00:43:39;;;;;;;12.77;8.15;;;7.20;99.90;;;;;;4975841;28;20489;-62
2022/04/16 00:46:04;;;;;;;14.68;9.05;;;7.20;99.90;;;;;;4958722;28;20035;-62
2022/04/16 00:48:30;;;;;;;16.90;10.15;;;7.00;99.90;;;;;;4976472;28;20041;-62
2022/04/16 00:50:57;;;;;;;15.10;9.35;;;7.10;99.90;;;;;;4958722;28;20130;-62
2022/04/16 00:53:29;;;;;;;14.57;9.38;;;6.90;99.90;;;;;;4975588;28;20049;-62
2022/04/16 00:55:56;;;;;;;16.08;9.93;;;7.10;99.90;;;;;;4957582;28;20406;-63
2022/04/16 00:58:23;;;;;;;15.15;9.55;;;;;;;;;;4975466;28;20053;-62
2022/04/16 01:00:48;;;;;;;14.18;9.63;;;;;;;;;;4958163;28;20050;-62
2022/04/16 01:03:14;;;;;;;16.13;9.93;;;7.00;99.90;;;;;;4975308;28;20050;-62
2022/04/16 01:05:40;;;;;;;15.30;10.38;;;7.00;99.90;;;;;;4958456;28;20039;-62
2022/04/16 01:08:06;;;;;;;16.75;10.70;;;;;;;;;;4958170;28;20413;-62
2022/04/16 01:10:34;;;;;;;20.70;11.52;;;7.00;99.90;;;;;;4975475;28;20093;-62
2022/04/16 01:13:02;;;;;;;18.65;10.60;;;6.80;99.90;;;;;;4975517;28;20038;-62
2022/04/16 01:15:29;;;;;;;15.15;10.05;;;6.70;99.90;;;;;;4957914;28;20053;-62
2022/04/16 01:17:55;;;;;;;13.80;9.52;;;6.70;99.90;;;;;;4942237;28;20077;-62
2022/04/16 01:20:22;;;;;;;12.35;9.07;;;;;;;;;;4957845;28;20074;-62
2022/04/16 01:22:51;;;;;;;13.90;10.10;;;6.50;99.90;;;;;;4957904;28;20054;-62
2022/04/16 01:25:18;;;;;;;14.77;10.27;;;;;;;;;;4975370;28;20118;-62
2022/04/16 01:27:45;;;;;;;15.93;11.32;;;6.50;99.90;;;;;;4975387;28;20598;-62
2022/04/16 01:30:16;;;;;;;14.40;10.45;;;6.40;99.90;;;;;;4958201;28;20057;-62
2022/04/16 01:32:42;;;;;;;19.52;13.32;;;6.40;99.90;;;;;;4975215;28;20086;-62
2022/04/16 01:35:08;;;;;;;14.63;10.02;;;;;;;;;;4975107;28;20038;-62
2022/04/16 01:37:35;;;;;;;14.25;9.75;;;6.60;99.90;;;;;;4975656;28;20042;-62
2022/04/16 01:40:08;;;;;;;13.02;9.13;;;;;;;;;;4975173;28;20043;-62
2022/04/16 01:42:34;;;;;;;11.68;9.30;;;6.40;99.90;;;;;;4975070;28;20046;-62
2022/04/16 01:45:01;;;;;;;13.57;9.38;;;6.10;99.90;;;;;;4975217;28;20034;-62
2022/04/16 01:47:28;;;;;;;14.15;9.32;;;6.20;99.90;;;;;;4974948;28;20047;-62
2022/04/16 01:49:55;;;;;;;14.75;10.52;;;;;;;;;;4975504;28;20121;-62
2022/04/16 01:52:23;;;;;;;14.90;11.30;;;;;;;;;;4975528;28;20051;-62
2022/04/16 01:54:51;;;;;;;14.80;11.00;;;5.90;99.90;;;;;;4974796;28;20047;-62
2022/04/16 01:57:20;;;;;;;13.63;10.15;;;;;;;;;;4974663;28;20043;-62
2022/04/16 01:59:46;;;;;;;15.15;10.45;;;;;;;;;;4975276;28;20089;-62
2022/04/16 02:02:13;;;;;;;8.90;7.05;;;6.10;99.90;;;;;;4974807;28;20117;-62
2022/04/16 02:04:39;;;;;;;7.70;5.65;;;6.00;99.90;;;;;;4956971;28;20043;-62
2022/04/16 02:07:05;;;;;;;10.82;8.38;;;6.00;99.90;;;;;;4975474;28;20046;-62
2022/04/16 02:09:31;;;;;;;9.00;6.70;;;;;;;;;;4957886;28;20540;-62
2022/04/16 02:11:56;;;;;;;12.05;8.43;;;5.80;99.90;;;;;;4960204;28;20043;-62
2022/04/16 02:14:22;;;;;;;11.75;8.90;;;6.00;99.90;;;;;;4978447;28;20077;-62
2022/04/16 02:16:48;;;;;;;11.43;8.32;;;;;;;;;;4978484;28;20038;-62
2022/04/16 02:19:14;;;;;;;11.52;8.45;;;5.90;99.90;;;;;;4960514;28;20034;-62
2022/04/16 02:21:41;;;;;;;11.80;8.25;;;5.80;99.90;;;;;;4978716;28;20134;-62
2022/04/16 02:24:07;;;;;;;10.75;7.75;;;5.90;99.90;;;;;;4979182;28;20039;-62
2022/04/16 02:26:32;;;;;;;9.88;5.93;;;5.80;99.90;;;;;;4961214;28;20039;-62
2022/04/16 02:28:59;;;;;;;9.52;6.78;;;5.50;99.90;;;;;;4978812;28;20071;-62
2022/04/16 02:31:25;;;;;;;5.97;5.20;;;;;;;;;;4978712;28;20039;-62
2022/04/16 02:33:51;;;;;;;7.10;5.90;;;5.60;99.90;;;;;;4977941;28;20493;-62
2022/04/16 02:36:16;;;;;;;6.78;5.53;;;5.60;99.90;;;;;;4978122;28;20047;-62
2022/04/16 02:38:42;;;;;;;6.97;5.53;;;5.70;99.90;;;;;;4977671;28;20043;-62
2022/04/16 02:41:08;;;;;;;13.95;6.85;;;;;;;;;;4978142;28;20060;-62
2022/04/16 02:43:33;;;;;;;8.65;6.63;;;5.50;99.90;;;;;;4978650;28;20217;-62
2022/04/16 02:48:43;;;;;;;9.07;5.28;;;5.50;99.90;;;;;;4978266;28;20046;-62
2022/04/16 02:51:09;;;;;;;8.57;5.80;;;;;;;;;;4977947;28;20577;-62
2022/04/16 02:53:35;;;;;;;5.43;4.93;;;5.20;99.90;;;;;;4977762;28;20126;-62
2022/04/16 02:56:00;;;;;;;6.82;4.60;;;5.30;99.90;;;;;;4977881;28;20050;-62
2022/04/16 02:58:26;;;;;;;158.18;10.75;;;;;;;;;;4977365;28;20043;-62
2022/04/16 03:00:54;;;;;;;7.68;5.40;;;5.00;99.90;;;;;;4977164;28;20042;-61
2022/04/16 03:03:21;;;;;;;42.88;7.18;;;5.10;99.90;;;;;;4960131;28;20469;-62
2022/04/16 03:05:47;;;;;;;16.50;6.45;;;5.00;99.90;;;;;;4977984;28;20058;-62
2022/04/16 03:08:15;;;;;;;45.60;6.90;;;;;;;;;;4977817;28;20050;-62
2022/04/16 03:10:41;;;;;;;23.55;7.82;;;;;;;;;;4977472;28;20049;-61
2022/04/16 03:13:07;;;;;;;28.73;7.30;;;;;;;;;;4977128;28;20122;-62
2022/04/16 03:18:18;;;;;;;105.23;14.17;;;;;;;;;;4977438;28;20042;-62
2022/04/16 03:20:44;;;;;;;134.90;12.80;;;;;;;;;;4977100;28;20031;-62
2022/04/16 03:23:10;;;;;;;39.05;12.32;;;;;;;;;;4950289;28;20050;-61
2022/04/16 03:25:40;;;;;;;52.28;8.73;;;4.90;99.90;;;;;;4974063;28;20049;-62
2022/04/16 03:28:06;;;;;;;14.38;6.40;;;;;;;;;;4977392;28;20093;-61
2022/04/16 03:30:32;;;;;;;102.97;10.10;;;4.80;99.90;;;;;;4976897;28;20118;-62
2022/04/16 03:32:59;;;;;;;20.70;6.88;;;;;;;;;;4976726;28;20051;-62
2022/04/16 03:35:25;;;;;;;13.55;7.07;;;;;;;;;;4960229;28;20074;-61
2022/04/16 03:37:51;;;;;;;16.05;6.63;;;;;;;;;;4977097;28;20038;-61
2022/04/16 03:40:17;;;;;;;9.80;6.43;;;;;;;;;;4976827;28;20093;-62
2022/04/16 03:42:50;;;;;;;8.07;5.97;;;;;;;;;;4976882;28;20196;-62
2022/04/16 03:45:21;;;;;;;9.82;7.65;;;5.10;99.90;;;;;;4977053;28;20049;-62
2022/04/16 03:47:50;;;;;;;13.18;7.78;;;;;;;;;;4960009;28;20049;-62
2022/04/16 03:50:18;;;;;;;13.13;9.25;;;5.10;99.90;;;;;;4960027;28;20055;-62
2022/04/16 03:52:45;;;;;;;12.07;8.45;;;5.10;99.90;;;;;;4959396;28;20130;-61
2022/04/16 04:00:48;;;;;;;14.10;8.75;;;5.10;99.90;;;;;;4976956;28;20117;-62
2022/04/16 04:03:14;;;;;;;14.75;10.38;;;;;;;;;;4959173;28;20445;-61
2022/04/16 04:05:40;;;;;;;17.85;12.00;;;5.20;99.90;;;;;;4959410;28;20413;-62
2022/04/16 04:08:08;;;;;;;18.92;12.90;;;5.30;99.90;;;;;;4943346;28;20038;-62
2022/04/16 04:10:34;;;;;;;22.30;13.95;;;5.50;99.90;;;;;;4959871;28;20038;-61
2022/04/16 04:13:00;;;;;;;27.17;17.02;;;5.50;99.90;;;;;;4959342;28;20489;-63
2022/04/16 04:15:31;;;;;;;28.52;17.52;;;5.60;99.90;;;;;;4958761;28;20049;-61
2022/04/16 04:18:01;;;;;;;30.35;19.77;;;5.60;99.90;;;;;;4958691;28;20085;-62
2022/04/16 04:20:28;;;;;;;35.17;19.92;;;5.70;99.90;;;;;;4958992;28;20066;-62
2022/04/16 04:22:54;;;;;;;33.15;20.40;;;5.90;99.90;;;;;;4958384;28;20539;-61
2022/04/16 04:25:19;;;;;;;37.55;20.38;;;6.00;99.90;;;;;;4976225;28;20134;-61
2022/04/16 04:27:45;;;;;;;34.33;21.67;;;6.20;99.90;;;;;;4976217;28;20401;-62
2022/04/16 04:30:11;;;;;;;35.97;20.80;;;;;;;;;;4975811;28;20051;-61
2022/04/16 04:32:38;;;;;;;35.42;21.27;;;;;;;;;;4975235;28;20049;-61
2022/04/16 04:35:04;;;;;;;35.42;22.13;;;;;;;;;;4975511;28;20039;-61
2022/04/16 04:37:30;;;;;;;37.60;22.58;;;;;;;;;;4975879;28;20035;-62
2022/04/16 04:39:56;;;;;;;36.33;21.95;;;;;;;;;;4958384;28;20504;-61
2022/04/16 04:42:26;;;;;;;36.08;20.80;;;;;;;;;;4976230;28;20069;-62
2022/04/16 04:44:53;;;;;;;37.70;22.08;;;;;;;;;;4958337;28;20042;-61
2022/04/16 04:47:19;;;;;;;40.83;22.42;;;6.40;99.90;;;;;;4957806;28;20416;-62
2022/04/16 04:49:45;;;;;;;35.67;21.48;;;6.40;99.90;;;;;;4975885;28;20035;-62
2022/04/16 04:52:10;;;;;;;38.63;22.90;;;6.30;99.90;;;;;;4975578;28;20497;-60
2022/04/16 04:54:36;;;;;;;39.60;23.48;;;;;;;;;;4958517;28;20030;-62
2022/04/16 04:57:05;;;;;;;41.63;23.77;;;;;;;;;;4958591;28;20054;-61
2022/04/16 04:59:31;;;;;;;42.28;22.38;;;6.70;99.90;;;;;;4959344;28;20379;-62
2022/04/16 05:01:57;;;;;;;44.50;24.17;;;;;;;;;;4975697;28;20050;-62
2022/04/16 05:04:22;;;;;;;37.72;22.33;;;7.00;99.90;;;;;;4975808;28;20094;-62
2022/04/16 05:06:48;;;;;;;38.42;20.45;;;;;;;;;;4975653;28;20042;-61
2022/04/16 05:09:14;;;;;;;40.97;23.52;;;;;;;;;;4975964;28;20050;-62
2022/04/16 05:11:40;;;;;;;38.95;18.85;;;;;;;;;;4954636;28;20126;-62
2022/04/16 05:14:06;;;;;;;36.67;21.50;;;7.40;99.90;;;;;;4955980;29;20035;-61
2022/04/16 05:16:31;;;;;;;38.47;23.40;;;7.40;99.90;;;;;;4963379;28;20037;-62
2022/04/16 05:18:57;;;;;;;35.42;21.10;;;;;;;;;;4939739;28;20409;-62
2022/04/16 05:21:23;;;;;;;38.38;20.27;;;;;;;;;;4955482;28;20497;-62
2022/04/16 05:23:49;;;;;;;32.28;19.27;;;7.60;99.90;;;;;;4953361;28;20078;-62
2022/04/16 05:26:15;;;;;;;32.63;20.45;;;;;;;;;;4956101;28;20042;-62
2022/04/16 05:28:41;;;;;;;32.50;19.80;;;;;;;;;;4970938;28;20398;-62
2022/04/16 05:31:07;;;;;;;32.03;17.80;;;;;;;;;;4954509;28;20039;-62
2022/04/16 05:36:18;;;;;;;34.38;19.95;;;7.60;99.90;;;;;;4974180;28;20117;-62
2022/04/16 05:38:44;;;;;;;33.05;20.83;;;7.40;99.90;;;;;;4974300;28;20439;-62
2022/04/16 05:41:10;;;;;;;32.28;19.38;;;;;;;;;;4955543;28;20118;-62
2022/04/16 05:43:36;;;;;;;32.35;19.67;;;;;;;;;;4973671;28;20047;-62
2022/04/16 05:46:02;;;;;;;33.83;19.13;;;7.70;99.90;;;;;;4971520;28;20042;-62
2022/04/16 05:48:28;;;;;;;31.33;18.38;;;;;;;;;;4960615;28;20042;-62
2022/04/16 05:50:56;;;;;;;36.88;20.08;;;7.70;99.90;;;;;;4962899;28;20045;-62
2022/04/16 05:53:23;;;;;;;26.80;16.95;;;;;;;;;;4978032;28;20212;-62
2022/04/16 05:55:50;;;;;;;34.53;16.80;;;7.70;99.90;;;;;;4978418;28;20054;-62
2022/04/16 05:58:16;;;;;;;30.15;18.13;;;7.90;99.90;;;;;;4979526;28;20126;-62
2022/04/16 06:00:42;;;;;;;25.92;16.25;;;;;;;;;;4961462;28;20042;-62
2022/04/16 06:03:08;;;;;;;26.88;15.20;;;7.90;99.90;;;;;;4979277;28;20047;-62
2022/04/16 06:05:35;;;;;;;24.95;13.45;;;;;;;;;;4979012;28;20038;-62
2022/04/16 06:08:01;;;;;;;24.23;14.00;;;7.80;99.90;;;;;;4979006;28;20039;-62
2022/04/16 06:10:27;;;;;;;26.40;14.50;;;8.10;99.90;;;;;;4962203;28;20038;-62
2022/04/16 06:12:53;;;;;;;22.85;15.18;;;;;;;;;;4961597;28;20117;-62
2022/04/16 06:15:19;;;;;;;21.08;12.10;;;;;;;;;;4978683;28;20043;-62
2022/04/16 06:17:44;;;;;;;25.40;15.45;;;8.00;99.90;;;;;;4961864;28;20042;-62
2022/04/16 06:20:11;;;;;;;24.13;14.55;;;;;;;;;;4978824;28;20039;-62
2022/04/16 06:22:37;;;;;;;23.63;14.35;;;;;;;;;;4978492;28;20053;-62
2022/04/16 06:25:03;;;;;;;24.83;14.57;;;8.20;99.90;;;;;;4978221;28;20480;-62
2022/04/16 06:27:29;;;;;;;21.00;12.80;;;;;;;;;;4978418;28;20449;-62
2022/04/16 06:29:55;;;;;;;23.13;13.93;;;8.30;99.90;;;;;;4960548;28;20078;-62
2022/04/16 06:32:20;;;;;;;22.73;13.25;;;8.40;99.90;;;;;;4978026;28;20401;-61
2022/04/16 06:34:46;;;;;;;18.98;11.43;;;8.60;99.90;;;;;;4961014;28;20074;-62
2022/04/16 06:37:12;;;;;;;21.67;13.35;;;8.60;99.90;;;;;;4978408;28;20038;-62
2022/04/16 06:39:37;;;;;;;22.05;13.20;;;8.70;99.90;;;;;;4961680;28;20046;-62
2022/04/16 06:42:03;;;;;;;22.73;13.27;;;8.60;99.90;;;;;;4951206;29;20130;-63
2022/04/16 06:44:31;;;;;;;24.55;13.10;;;8.60;99.90;;;;;;4958009;29;20043;-63
2022/04/16 06:46:57;;;;;;;25.27;14.02;;;8.70;99.90;;;;;;4957690;29;20502;-62
2022/04/16 06:49:25;;;;;;;22.00;13.85;;;8.90;99.90;;;;;;4957749;29;20067;-63
2022/04/16 06:51:51;;;;;;;21.60;12.38;;;8.80;99.90;;;;;;4939208;29;20058;-62
2022/04/16 06:54:17;;;;;;;20.58;11.32;;;9.00;99.90;;;;;;4954850;29;20077;-64
2022/04/16 06:56:43;;;;;;;20.38;11.55;;;9.30;99.90;;;;;;4950063;28;20094;-63
2022/04/16 06:59:09;;;;;;;18.90;9.77;;;;;;;;;;4972481;28;20034;-64
2022/04/16 07:01:34;;;;;;;18.40;9.25;;;;;;;;;;4972310;28;20038;-63
2022/04/16 07:04:00;;;;;;;18.60;10.15;;;9.80;99.90;;;;;;4955643;28;20052;-63
2022/04/16 07:06:26;;;;;;;21.95;12.00;;;;;;;;;;4969855;28;20038;-63
2022/04/16 07:08:52;;;;;;;16.52;11.10;;;9.80;99.90;;;;;;4972453;28;20043;-64
2022/04/16 07:11:18;;;;;;;16.42;9.25;;;;;;;;;;4955301;28;20564;-63
2022/04/16 07:13:44;;;;;;;20.58;11.43;;;;;;;;;;4972578;28;20113;-64
2022/04/16 07:16:10;;;;;;;20.85;12.10;;;9.40;99.90;;;;;;4972228;28;20042;-63
2022/04/16 07:18:36;;;;;;;18.42;10.65;;;;;;;;;;4971735;28;20039;-63
2022/04/16 07:21:01;;;;;;;17.70;10.43;;;9.50;99.90;;;;;;4938110;28;20039;-63
2022/04/16 07:23:27;;;;;;;13.48;7.72;;;;;;;;;;4942909;28;20049;-64
2022/04/16 07:25:53;;;;;;;18.85;12.02;;;9.90;99.90;;;;;;4952798;28;20129;-64
2022/04/16 07:28:22;;;;;;;17.25;11.00;;;;;;;;;;4962465;28;20043;-64
2022/04/16 07:30:48;;;;;;;20.70;11.32;;;10.10;99.90;;;;;;4969928;28;20134;-64
2022/04/16 07:33:14;;;;;;;17.90;10.40;;;10.20;99.90;;;;;;4951602;28;20042;-64
2022/04/16 07:35:40;;;;;;;17.85;10.38;;;;;;;;;;4935146;28;20043;-66
2022/04/16 07:38:06;;;;;;;18.58;11.07;;;;;;;;;;4967846;28;20468;-65
2022/04/16 07:40:34;;;;;;;18.33;10.82;;;;;;;;;;4966550;28;20039;-66
2022/04/16 07:43:01;;;;;;;18.77;11.82;;;10.50;99.90;;;;;;4956051;28;20090;-66
2022/04/16 07:45:27;;;;;;;17.23;11.02;;;;;;;;;;4947908;28;20072;-64
2022/04/16 07:47:53;;;;;;;15.23;8.90;;;;;;;;;;4953392;28;20054;-64
2022/04/16 07:50:19;;;;;;;16.58;10.40;;;;;;;;;;4954523;28;20055;-65
2022/04/16 07:52:45;;;;;;;16.55;10.00;;;10.70;99.90;;;;;;4967775;28;20096;-65
2022/04/16 07:55:11;;;;;;;16.35;10.77;;;;;;;;;;4952231;28;20626;-63
2022/04/16 07:57:37;;;;;;;15.25;9.23;;;10.80;99.90;;;;;;4971265;28;20050;-63
2022/04/16 08:00:08;;;;;;;15.25;9.25;;;10.90;99.90;;;;;;4970528;28;20092;-63
2022/04/16 08:02:34;;;;;;;17.98;9.55;;;;;;;;;;4917467;29;20059;-63
2022/04/16 08:05:00;;;;;;;14.27;8.70;;;;;;;;;;4940479;29;20054;-64
2022/04/16 08:07:26;;;;;;;14.32;8.20;;;;;;;;;;4948155;28;20035;-63
2022/04/16 08:09:52;;;;;;;16.80;9.30;;;;;;;;;;4929204;29;20226;-63
2022/04/16 08:12:18;;;;;;;17.15;9.80;;;;;;;;;;4926425;29;20920;-62
2022/04/16 08:14:44;;;;;;;12.98;9.43;;;;;;;;;;4947558;29;20196;-62
2022/04/16 08:17:10;;;;;;;16.83;10.52;;;;;;;;;;4944831;29;20093;-63
2022/04/16 08:19:35;;;;;;;13.55;8.60;;;10.90;99.90;;;;;;4950923;29;20039;-64
2022/04/16 08:22:07;;;;;;;16.30;10.35;;;;;;;;;;4952685;28;20481;-64
2022/04/16 08:24:41;;;;;;;14.55;8.43;;;11.00;99.90;;;;;;4933331;28;20464;-64
2022/04/16 08:27:07;;;;;;;17.02;9.25;;;11.10;99.90;;;;;;4943412;29;20055;-64
2022/04/16 08:29:33;;;;;;;14.88;9.43;;;;;;;;;;4948118;28;20042;-65
2022/04/16 08:31:59;;;;;;;10.77;7.10;;;11.30;99.90;;;;;;4952801;28;20054;-64
2022/04/16 08:34:25;;;;;;;17.95;10.23;;;;;;;;;;4970470;28;20034;-64
2022/04/16 08:36:51;;;;;;;13.60;8.57;;;;;;;;;;4941841;29;20533;-64
2022/04/16 08:39:17;;;;;;;13.10;7.90;;;;;;;;;;4935291;29;20043;-64
2022/04/16 08:41:43;;;;;;;14.35;8.93;;;;;;;;;;4934027;28;20152;-64
2022/04/16 08:44:09;;;;;;;10.88;7.10;;;11.70;99.90;;;;;;4933687;28;20038;-65
2022/04/16 08:46:35;;;;;;;8.70;6.18;;;;;;;;;;4916912;29;20147;-66
2022/04/16 08:49:02;;;;;;;9.57;6.10;;;;;;;;;;4932639;29;20101;-65
2022/04/16 08:51:28;;;;;;;10.63;6.80;;;;;;;;;;4932416;29;20429;-65
2022/04/16 08:53:54;;;;;;;10.73;6.68;;;;;;;;;;4913620;29;20654;-63
2022/04/16 08:56:20;;;;;;;10.45;6.75;;;;;;;;;;4960413;28;20421;-64
2022/04/16 08:58:46;;;;;;;14.55;7.45;;;;;;;;;;4944326;28;20047;-66
2022/04/16 09:01:12;;;;;;;9.70;6.18;;;12.00;99.90;;;;;;4939810;28;20047;-63
2022/04/16 09:03:39;;;;;;;10.35;7.80;;;12.00;99.90;;;;;;4930540;28;20277;-65
2022/04/16 09:06:06;;;;;;;10.55;7.20;;;11.90;99.90;;;;;;4966425;28;20280;-66
2022/04/16 09:08:33;;;;;;;10.45;6.70;;;12.00;99.90;;;;;;4964590;28;20043;-65
2022/04/16 09:11:07;;;;;;;8.73;5.53;;;12.20;99.90;;;;;;4951473;28;20049;-65
2022/04/16 09:13:33;;;;;;;7.10;4.40;;;12.20;99.90;;;;;;4966986;28;20066;-65
2022/04/16 09:16:10;;;;;;;10.05;5.35;;;12.20;99.90;;;;;;4971407;28;20493;-66
2022/04/16 09:18:52;;;;;;;6.25;4.40;;;12.20;99.90;;;;;;4955956;28;20485;-65
2022/04/16 09:21:19;;;;;;;7.93;4.32;;;12.30;99.90;;;;;;4988869;28;20038;-65
2022/04/16 09:23:52;;;;;;;5.50;3.90;;;12.40;99.90;;;;;;4971538;28;20060;-66
2022/04/16 09:26:32;;;;;;;5.28;3.63;;;12.40;99.90;;;;;;4952628;28;20047;-64
2022/04/16 09:29:12;;;;;;;7.30;4.18;;;12.60;99.90;;;;;;4949969;28;20104;-65
2022/04/16 09:31:39;;;;;;;8.48;4.50;;;12.70;99.90;;;;;;4947925;28;20077;-65
2022/04/16 09:34:19;;;;;;;6.00;4.25;;;12.90;99.90;;;;;;4951166;28;20085;-64
2022/04/16 09:36:46;;;;;;;6.88;3.03;;;12.70;99.90;;;;;;4966522;28;20042;-65
2022/04/16 09:39:12;;;;;;;4.63;2.95;;;;;;;;;;4945937;28;20149;-66
2022/04/16 09:41:44;;;;;;;3.90;2.88;;;13.00;99.90;;;;;;4947174;28;20496;-65
2022/04/16 09:44:18;;;;;;;4.28;3.00;;;12.90;99.90;;;;;;4947405;28;20146;-65
2022/04/16 09:46:47;;;;;;;3.70;2.97;;;13.10;99.90;;;;;;4964573;28;20066;-66
2022/04/16 09:49:14;;;;;;;3.88;2.78;;;11.70;99.90;;;;;;4947566;28;20062;-67
2022/04/16 09:51:42;;;;;;;4.03;3.03;;;13.20;99.90;;;;;;4947892;28;20038;-64
2022/04/16 09:54:09;;;;;;;5.80;2.55;;;;;;;;;;4933118;28;20049;-65
2022/04/16 09:56:36;;;;;;;3.63;2.28;;;13.40;99.90;;;;;;4949084;28;20058;-65
2022/04/16 09:59:08;;;;;;;3.25;2.05;;;13.20;99.90;;;;;;4951222;28;20516;-66
2022/04/16 10:01:38;;;;;;;3.50;1.85;;;13.20;99.90;;;;;;4950979;28;20034;-65
2022/04/16 10:04:08;;;;;;;2.47;1.85;;;13.40;99.90;;;;;;4951204;28;20046;-65
2022/04/16 10:06:34;;;;;;;2.85;1.45;;;13.30;99.90;;;;;;4950129;28;20129;-65
2022/04/16 10:09:13;;;;;;;3.97;2.08;;;13.50;99.90;;;;;;4935440;28;20477;-65
2022/04/16 10:14:38;;;;;;;4.95;2.10;;;13.60;99.90;;;;;;4958895;28;20093;-65
2022/04/16 10:17:35;;;;;;;6.90;2.80;;;13.70;99.90;;;;;;4969684;28;20053;-65
2022/04/16 10:20:09;;;;;;;5.28;2.13;;;13.70;99.90;;;;;;4950217;28;20450;-65
2022/04/16 10:22:36;;;;;;;2.92;2.10;;;13.80;99.90;;;;;;4971182;28;20513;-64
2022/04/16 10:25:02;;;;;;;2.58;1.90;;;14.20;99.90;;;;;;4988730;28;20046;-65
2022/04/16 10:27:30;;;;;;;3.70;1.90;;;13.80;99.90;;;;;;4964050;28;20121;-64
2022/04/16 10:30:08;;;;;;;3.08;1.88;;;13.80;99.90;;;;;;4974421;28;20061;-65
2022/04/16 10:32:45;;;;;;;3.15;1.73;;;13.80;99.90;;;;;;4973260;28;20046;-65
2022/04/16 10:35:15;;;;;;;4.07;2.25;;;13.80;99.90;;;;;;4958844;28;20035;-65
2022/04/16 10:37:42;;;;;;;2.88;1.85;;;13.90;99.90;;;;;;4976034;28;20050;-64
2022/04/16 10:40:23;;;;;;;2.13;1.75;;;13.80;99.90;;;;;;4954631;28;20501;-64
2022/04/16 10:42:50;;;;;;;2.35;1.73;;;13.40;99.90;;;;;;4978206;28;20050;-64
2022/04/16 10:45:17;;;;;;;2.20;1.60;;;13.70;99.90;;;;;;4952518;28;20070;-64
2022/04/16 10:47:42;;;;;;;2.20;1.85;;;13.70;99.90;;;;;;4991907;28;20038;-64
2022/04/16 10:50:13;;;;;;;1.88;1.67;;;13.70;99.90;;;;;;4978214;28;20039;-64
2022/04/16 10:52:39;;;;;;;1.85;1.58;;;13.80;99.90;;;;;;4954691;28;20047;-63
2022/04/16 10:55:06;;;;;;;2.50;1.77;;;;;;;;;;4951217;28;20054;-65
2022/04/16 10:57:32;;;;;;;5.30;1.90;;;;;;;;;;4972711;28;20077;-64
2022/04/16 11:00:10;;;;;;;3.25;1.85;;;13.90;99.90;;;;;;4953305;28;20046;-65
2022/04/16 11:02:36;;;;;;;2.38;1.45;;;13.80;99.90;;;;;;4953079;28;20100;-65
2022/04/16 11:05:05;;;;;;;2.47;1.50;;;14.10;99.90;;;;;;4968924;28;20058;-65
2022/04/16 11:07:35;;;;;;;2.03;1.38;;;13.90;99.90;;;;;;4954866;28;20461;-65
2022/04/16 11:10:01;;;;;;;3.40;2.13;;;13.90;99.90;;;;;;4950245;28;20043;-65
2022/04/16 11:12:29;;;;;;;4.00;1.83;;;;;;;;;;4970899;28;20051;-65
2022/04/16 11:14:55;;;;;;;3.20;1.65;;;13.80;99.90;;;;;;4984822;28;20055;-65
2022/04/16 11:17:21;;;;;;;2.17;1.58;;;;;;;;;;4972073;28;20483;-64
2022/04/16 11:19:50;;;;;;;1.70;1.52;;;;;;;;;;4952393;28;20047;-65
2022/04/16 11:22:15;;;;;;;4.47;1.70;;;13.70;99.90;;;;;;4953054;28;20675;-64
2022/04/16 11:24:44;;;;;;;1.77;1.33;;;;;;;;;;4951788;28;20149;-65
2022/04/16 11:35:24;;;;;;;3.28;1.27;;;14.00;99.90;;;;;;4967120;28;20137;-65
2022/04/16 11:37:53;;;;;;;2.20;0.90;;;14.00;99.90;;;;;;4935082;28;20035;-64
2022/04/16 11:40:33;;;;;;;1.25;1.00;;;14.00;99.50;;;;;;4949652;28;20038;-66
2022/04/16 11:43:04;;;;;;;2.00;0.80;;;;;;;;;;4928882;28;20070;-65
2022/04/16 11:45:44;;;;;;;2.90;1.15;;;13.90;99.90;;;;;;4927851;28;20046;-64
2022/04/16 11:48:15;;;;;;;1.95;0.82;;;14.00;98.70;;;;;;4949272;28;20396;-66
2022/04/16 11:50:50;;;;;;;2.15;1.48;;;14.10;97.60;;;;;;4967446;28;20065;-64
2022/04/16 11:53:23;;;;;;;1.55;1.13;;;14.10;96.40;;;;;;4935836;28;20042;-65
2022/04/16 11:55:52;;;;;;;1.52;0.80;;;14.10;99.90;;;;;;4952534;28;20061;-65
2022/04/16 11:58:26;;;;;;;3.38;1.08;;;14.20;98.60;;;;;;4969952;28;20074;-65
2022/04/16 12:00:57;;;;;;;1.38;1.10;;;14.00;95.80;;;;;;4952124;28;20038;-65
2022/04/16 12:03:23;;;;;;;2.53;1.15;;;;;;;;;;4968096;28;20121;-65
2022/04/16 12:05:50;;;;;;;1.27;1.17;;;;;;;;;;4968992;28;20492;-64
2022/04/16 12:08:19;;;;;;;3.10;0.90;;;13.90;96.50;;;;;;4951561;28;20095;-63
2022/04/16 12:10:48;;;;;;;1.83;0.85;;;14.00;96.80;;;;;;4969880;28;20042;-65
2022/04/16 12:13:14;;;;;;;1.02;0.63;;;14.20;93.50;;;;;;4952338;28;20051;-65
2022/04/16 12:15:43;;;;;;;2.50;1.08;;;14.20;91.70;;;;;;4935473;28;20062;-65
2022/04/16 12:18:10;;;;;;;1.70;0.80;;;14.20;91.60;;;;;;4952259;28;20039;-65
2022/04/16 12:20:46;;;;;;;1.55;0.98;;;14.20;91.90;;;;;;4952467;28;20085;-64
2022/04/16 12:23:19;;;;;;;1.45;0.90;;;14.00;93.50;;;;;;4969512;28;20049;-65
2022/04/16 12:25:45;;;;;;;1.92;0.93;;;;;;;;;;4951899;28;20057;-63
2022/04/16 12:28:12;;;;;;;2.05;0.70;;;13.90;91.40;;;;;;4958181;28;20631;-64
2022/04/16 12:30:38;;;;;;;2.47;0.73;;;;;;;;;;4968986;28;20122;-63
2022/04/16 12:33:06;;;;;;;1.10;0.90;;;14.10;92.00;;;;;;4968908;28;20643;-65
2022/04/16 12:35:33;;;;;;;2.28;1.10;;;14.00;91.50;;;;;;4943542;28;20066;-64
2022/04/16 12:37:59;;;;;;;2.33;1.73;;;;;;;;;;4968562;28;20041;-64
2022/04/16 12:40:26;;;;;;;3.20;1.10;;;14.10;94.40;;;;;;4968932;28;20038;-65
2022/04/16 12:42:53;;;;;;;3.40;1.25;;;14.00;96.30;;;;;;4936607;28;20042;-63
2022/04/16 12:45:20;;;;;;;1.45;0.90;;;;;;;;;;4967024;28;20153;-64
2022/04/16 12:47:46;;;;;;;2.30;1.35;;;14.20;96.70;;;;;;4949605;28;20043;-64
2022/04/16 12:50:13;;;;;;;2.08;1.10;;;14.40;93.30;;;;;;4950007;28;21563;-65
2022/04/16 12:52:40;;;;;;;4.20;1.17;;;14.20;93.70;;;;;;4950051;28;20043;-67
2022/04/16 12:55:06;;;;;;;2.85;0.93;;;14.50;92.00;;;;;;4966431;28;20109;-65
2022/04/16 12:57:32;;;;;;;1.92;0.98;;;;;;;;;;4951274;28;20548;-64
2022/04/16 12:59:58;;;;;;;0.93;0.80;;;;;;;;;;4951749;28;20505;-65
2022/04/16 13:02:24;;;;;;;1.52;0.90;;;14.10;91.90;;;;;;4946369;28;20063;-65
2022/04/16 13:04:50;;;;;;;1.95;1.08;;;14.00;92.10;;;;;;4948929;28;20053;-65
2022/04/16 13:07:16;;;;;;;3.58;0.90;;;;;;;;;;4948191;28;20034;-65
2022/04/16 13:09:42;;;;;;;1.35;0.85;;;14.10;91.00;;;;;;4964735;28;20065;-66
2022/04/16 13:12:08;;;;;;;2.17;1.00;;;;;;;;;;4961317;28;20133;-64
2022/04/16 13:14:34;;;;;;;5.55;1.00;;;;;;;;;;4934909;28;20078;-64
2022/04/16 13:17:01;;;;;;;2.67;0.90;;;14.00;92.90;;;;;;4950694;28;20043;-65
2022/04/16 13:19:27;;;;;;;2.35;0.88;;;;;;;;;;4949922;28;20046;-65
2022/04/16 13:21:55;;;;;;;1.70;0.98;;;;;;;;;;4967271;28;20065;-65
2022/04/16 13:24:20;;;;;;;1.48;1.30;;;14.10;91.50;;;;;;4935901;28;20038;-64
2022/04/16 13:26:47;;;;;;;1.40;0.85;;;;;;;;;;4948680;28;20085;-64
2022/04/16 13:29:15;;;;;;;1.10;0.70;;;;;;;;;;4968422;28;20058;-64
2022/04/16 13:31:42;;;;;;;1.33;1.05;;;;;;;;;;4965412;28;20039;-65
2022/04/16 13:34:08;;;;;;;2.03;0.88;;;;;;;;;;4947593;28;20531;-64
2022/04/16 13:36:34;;;;;;;1.30;0.98;;;;;;;;;;4964963;28;20038;-63
2022/04/16 13:39:00;;;;;;;1.20;1.00;;;;;;;;;;4929288;28;20050;-64
2022/04/16 13:41:39;;;;;;;1.63;0.90;;;;;;;;;;4931547;28;20042;-65
2022/04/16 13:44:06;;;;;;;1.27;0.65;;;14.40;91.00;;;;;;4937178;28;20054;-66
2022/04/16 13:46:33;;;;;;;2.22;1.35;;;14.20;93.30;;;;;;4961404;28;20046;-65
2022/04/16 13:48:58;;;;;;;1.55;1.17;;;14.40;92.70;;;;;;4964889;28;20093;-65